createdAt,value
2024-03-04T00:00:49.955Z,35.60
2024-03-04T00:03:17.123Z,34.38
2024-03-04T00:05:43.916Z,34.55
2024-03-04T00:08:10.487Z,34.78
2024-03-04T00:10:37.112Z,35.47
2024-03-04T00:13:04.049Z,34.03
2024-03-04T00:15:30.581Z,33.03
2024-03-04T00:17:57.591Z,31.98
2024-03-04T00:20:24.144Z,34.38
2024-03-04T00:22:50.705Z,33.65
2024-03-04T00:25:17.761Z,34.70
2024-03-04T00:27:45.751Z,32.88
2024-03-04T00:30:13.343Z,32.92
2024-03-04T00:32:40.064Z,33.22
2024-03-04T00:35:07.592Z,32.33
2024-03-04T00:37:34.273Z,31.38
2024-03-04T00:40:00.967Z,32.10
2024-03-04T00:42:28.373Z,30.98
2024-03-04T00:44:55.595Z,31.83
2024-03-04T00:47:22.112Z,29.55
2024-03-04T00:49:48.776Z,31.23
2024-03-04T00:52:16.292Z,30.85
2024-03-04T00:54:43.056Z,30.73
2024-03-04T00:57:09.526Z,31.92
2024-03-04T00:59:38.906Z,31.15
2024-03-04T01:02:09.026Z,31.13
2024-03-04T01:04:36.217Z,29.92
2024-03-04T01:07:02.777Z,29.52
2024-03-04T01:09:29.330Z,30.13
2024-03-04T01:11:55.874Z,29.27
2024-03-04T01:14:22.398Z,30.25
2024-03-04T01:16:50.260Z,30.90
2024-03-04T01:19:18.457Z,30.00
2024-03-04T01:21:44.954Z,29.70
2024-03-04T01:24:12.693Z,29.40
2024-03-04T01:26:39.254Z,32.33
2024-03-04T01:29:05.798Z,31.70
2024-03-04T01:31:32.341Z,30.42
2024-03-04T01:33:58.963Z,30.05
2024-03-04T01:36:25.455Z,31.70
2024-03-04T01:38:51.911Z,28.25
2024-03-04T01:41:18.785Z,30.77
2024-03-04T01:43:45.355Z,30.38
2024-03-04T01:46:12.542Z,31.38
2024-03-04T01:48:39.728Z,29.52
2024-03-04T01:51:07.814Z,30.90
2024-03-04T01:53:34.451Z,29.33
2024-03-04T01:56:05.932Z,31.08
2024-03-04T01:58:33.864Z,29.55
2024-03-04T02:01:06.461Z,30.98
2024-03-04T02:03:34.029Z,29.80
2024-03-04T02:06:01.716Z,30.52
2024-03-04T02:08:29.740Z,29.27
2024-03-04T02:10:56.841Z,29.55
2024-03-04T02:13:23.579Z,30.92
2024-03-04T02:15:51.150Z,30.35
2024-03-04T02:18:21.607Z,30.35
2024-03-04T02:23:16.046Z,29.42
2024-03-04T02:25:57.678Z,29.13
2024-03-04T02:28:26.758Z,29.73
2024-03-04T02:30:54.094Z,28.67
2024-03-04T02:33:22.483Z,29.88
2024-03-04T02:35:53.119Z,29.25
2024-03-04T02:40:49.856Z,27.33
2024-03-04T02:43:17.332Z,28.10
2024-03-04T02:45:44.331Z,29.05
2024-03-04T02:48:10.943Z,28.08
2024-03-04T02:50:39.157Z,28.60
2024-03-04T02:53:06.102Z,30.13
2024-03-04T02:55:32.769Z,28.23
2024-03-04T02:57:59.397Z,28.23
2024-03-04T03:00:25.928Z,29.83
2024-03-04T03:02:52.430Z,29.15
2024-03-04T03:05:18.934Z,29.00
2024-03-04T03:07:45.494Z,29.33
2024-03-04T03:10:12.037Z,28.10
2024-03-04T03:12:39.395Z,29.05
2024-03-04T03:15:07.658Z,27.17
2024-03-04T03:17:36.427Z,26.75
2024-03-04T03:20:13.818Z,28.45
2024-03-04T03:22:40.834Z,27.80
2024-03-04T03:25:08.056Z,27.67
2024-03-04T03:27:34.628Z,28.00
2024-03-04T03:30:01.192Z,28.00
2024-03-04T03:32:27.690Z,27.48
2024-03-04T03:34:54.184Z,26.67
2024-03-04T03:37:20.673Z,28.98
2024-03-04T03:39:47.422Z,27.00
2024-03-04T03:42:14.642Z,28.77
2024-03-04T03:44:41.100Z,28.45
2024-03-04T03:47:07.571Z,27.50
2024-03-04T03:49:35.446Z,27.77
2024-03-04T03:52:02.104Z,27.52
2024-03-04T03:54:28.627Z,28.70
2024-03-04T03:56:55.099Z,27.17
2024-03-04T03:59:21.634Z,28.08
2024-03-04T04:01:48.356Z,27.45
2024-03-04T04:04:16.134Z,29.48
2024-03-04T04:06:42.665Z,27.33
2024-03-04T04:09:09.656Z,26.70
2024-03-04T04:11:36.288Z,25.20
2024-03-04T04:14:02.802Z,27.30
2024-03-04T04:16:32.385Z,28.33
2024-03-04T04:18:59.140Z,28.43
2024-03-04T04:21:27.238Z,27.30
2024-03-04T04:23:53.785Z,27.98
2024-03-04T04:26:24.962Z,27.85
2024-03-04T04:28:51.575Z,27.70
2024-03-04T04:31:22.012Z,25.40
2024-03-04T04:36:17.619Z,25.45
2024-03-04T04:38:45.321Z,26.13
2024-03-04T04:41:13.296Z,25.45
2024-03-04T04:43:40.258Z,23.33
2024-03-04T04:46:06.980Z,25.20
2024-03-04T04:48:34.789Z,25.58
2024-03-04T04:51:01.571Z,22.98
2024-03-04T04:53:28.055Z,25.60
2024-03-04T04:55:54.649Z,26.15
2024-03-04T04:58:22.134Z,26.08
2024-03-04T05:00:48.804Z,27.35
2024-03-04T05:03:28.259Z,27.27
2024-03-04T05:06:02.716Z,27.70
2024-03-04T05:08:29.342Z,27.25
2024-03-04T05:10:55.945Z,27.48
2024-03-04T05:13:22.471Z,27.83
2024-03-04T05:15:48.983Z,27.92
2024-03-04T05:18:16.810Z,26.77
2024-03-04T05:20:54.053Z,28.63
2024-03-04T05:23:23.923Z,28.42
2024-03-04T05:25:50.955Z,28.30
2024-03-04T05:28:17.482Z,27.90
2024-03-04T05:30:44.137Z,27.77
2024-03-04T05:33:13.779Z,27.98
2024-03-04T05:35:40.990Z,26.27
2024-03-04T05:38:07.661Z,28.15
2024-03-04T05:40:34.204Z,28.67
2024-03-04T05:43:00.913Z,27.25
2024-03-04T05:45:28.837Z,28.10
2024-03-04T05:47:55.417Z,27.60
2024-03-04T05:50:22.180Z,27.85
2024-03-04T05:52:48.921Z,28.10
2024-03-04T05:55:17.390Z,28.27
2024-03-04T05:57:44.042Z,28.20
2024-03-04T06:00:15.810Z,28.27
2024-03-04T06:02:45.924Z,28.02
2024-03-04T06:05:14.430Z,29.23
2024-03-04T06:07:42.384Z,29.58
2024-03-04T06:10:09.924Z,27.92
2024-03-04T06:12:36.698Z,27.60
2024-03-04T06:15:03.747Z,26.98
2024-03-04T06:17:30.434Z,27.63
2024-03-04T06:19:57.461Z,26.55
2024-03-04T06:22:25.681Z,29.38
2024-03-04T06:24:53.535Z,26.60
2024-03-04T06:27:20.102Z,27.95
2024-03-04T06:29:46.617Z,27.80
2024-03-04T06:32:13.092Z,29.42
2024-03-04T06:34:41.447Z,28.45
2024-03-04T06:37:09.076Z,28.40
2024-03-04T06:39:35.917Z,28.33
2024-03-04T06:42:02.439Z,28.55
2024-03-04T06:44:28.929Z,26.92
2024-03-04T06:46:55.417Z,28.30
2024-03-04T06:49:21.939Z,27.48
2024-03-04T06:51:48.705Z,27.77
2024-03-04T06:54:16.316Z,30.33
2024-03-04T06:56:43.239Z,29.00
2024-03-04T06:59:09.698Z,29.50
2024-03-04T07:01:36.342Z,27.38
2024-03-04T07:04:02.980Z,29.02
2024-03-04T07:06:29.524Z,29.83
2024-03-04T07:08:57.705Z,28.27
2024-03-04T07:11:24.312Z,28.83
2024-03-04T07:13:50.913Z,28.52
2024-03-04T07:16:17.520Z,28.23
2024-03-04T07:18:44.661Z,28.42
2024-03-04T07:21:15.953Z,28.52
2024-03-04T07:23:42.903Z,27.65
2024-03-04T07:26:14.849Z,27.65
2024-03-04T07:28:42.886Z,27.58
2024-03-04T07:31:09.714Z,27.73
2024-03-04T07:33:36.742Z,28.05
2024-03-04T07:36:04.717Z,28.15
2024-03-04T07:38:31.286Z,27.23
2024-03-04T07:40:57.899Z,26.63
2024-03-04T07:43:25.394Z,27.70
2024-03-04T07:45:53.222Z,26.88
2024-03-04T07:48:19.725Z,28.38
2024-03-04T07:50:46.269Z,26.83
2024-03-04T07:53:12.779Z,27.63
2024-03-04T07:55:39.828Z,28.38
2024-03-04T07:58:06.444Z,27.73
2024-03-04T08:00:34.136Z,26.60
2024-03-04T08:03:00.737Z,27.08
2024-03-04T08:05:27.358Z,27.10
2024-03-04T08:07:57.410Z,28.60
2024-03-04T08:10:24.143Z,27.70
2024-03-04T08:12:50.852Z,26.60
2024-03-04T08:15:17.524Z,27.95
2024-03-04T08:17:53.987Z,28.25
2024-03-04T08:20:32.492Z,28.10
2024-03-04T08:23:01.236Z,28.88
2024-03-04T08:25:27.809Z,28.30
2024-03-04T08:27:54.360Z,27.98
2024-03-04T08:30:20.822Z,27.60
2024-03-04T08:32:47.410Z,28.02
2024-03-04T08:35:14.008Z,26.63
2024-03-04T08:37:41.064Z,27.77
2024-03-04T08:40:08.778Z,27.05
2024-03-04T08:42:44.318Z,27.85
2024-03-04T08:45:11.370Z,27.65
2024-03-04T08:47:38.249Z,27.00
2024-03-04T08:50:05.568Z,27.10
2024-03-04T08:52:32.226Z,28.23
2024-03-04T08:54:58.901Z,27.48
2024-03-04T08:57:25.426Z,26.95
2024-03-04T08:59:52.155Z,27.50
2024-03-04T09:02:19.438Z,28.52
2024-03-04T09:04:50.745Z,27.33
2024-03-04T09:07:17.517Z,25.55
2024-03-04T09:09:54.596Z,25.67
2024-03-04T09:12:22.599Z,26.15
2024-03-04T09:14:49.084Z,27.42
2024-03-04T09:17:15.556Z,25.98
2024-03-04T09:19:45.356Z,26.08
2024-03-04T09:22:11.976Z,27.92
2024-03-04T09:24:38.555Z,26.48
2024-03-04T09:27:07.449Z,26.17
2024-03-04T09:29:33.992Z,26.48
2024-03-04T09:32:00.574Z,26.88
2024-03-04T09:34:27.151Z,25.63
2024-03-04T09:36:53.776Z,27.23
2024-03-04T09:39:20.333Z,26.08
2024-03-04T09:41:47.462Z,27.00
2024-03-04T09:44:15.458Z,26.33
2024-03-04T09:46:43.691Z,24.75
2024-03-04T09:49:11.906Z,26.13
2024-03-04T09:51:39.399Z,25.92
2024-03-04T09:54:06.913Z,25.17
2024-03-04T09:56:33.479Z,25.80
2024-03-04T09:59:00.291Z,26.15
2024-03-04T10:01:27.335Z,26.42
2024-03-04T10:03:55.337Z,25.40
2024-03-04T10:06:22.269Z,25.55
2024-03-04T10:08:48.788Z,25.40
2024-03-04T10:11:15.864Z,25.42
2024-03-04T10:13:44.037Z,25.33
2024-03-04T10:16:15.041Z,24.98
2024-03-04T10:18:41.804Z,23.65
2024-03-04T10:21:09.098Z,24.13
2024-03-04T10:23:37.187Z,25.88
2024-03-04T10:26:10.833Z,25.42
2024-03-04T10:28:42.581Z,25.30
2024-03-04T10:31:12.961Z,26.25
2024-03-04T10:36:21.802Z,24.92
2024-03-04T10:38:49.146Z,24.90
2024-03-04T10:41:19.983Z,24.80
2024-03-04T10:43:47.746Z,24.90
2024-03-04T10:46:16.582Z,25.85
2024-03-04T10:48:43.537Z,23.50
2024-03-04T10:51:10.095Z,25.25
2024-03-04T10:53:36.851Z,24.20
2024-03-04T10:56:08.609Z,24.80
2024-03-04T10:58:38.205Z,24.98
2024-03-04T11:01:10.381Z,24.52
2024-03-04T11:03:44.341Z,23.75
2024-03-04T11:06:17.645Z,24.30
2024-03-04T11:08:48.651Z,26.33
2024-03-04T11:11:19.240Z,23.30
2024-03-04T11:14:06.751Z,24.02
2024-03-04T11:16:59.402Z,23.45
2024-03-04T11:19:47.836Z,24.00
2024-03-04T11:22:14.980Z,24.90
2024-03-04T11:24:42.892Z,24.40
2024-03-04T11:27:10.996Z,24.80
2024-03-04T11:29:38.016Z,24.88
2024-03-04T11:32:10.759Z,25.00
2024-03-04T11:35:00.689Z,23.10
2024-03-04T11:37:31.820Z,25.73
2024-03-04T11:40:00.739Z,24.10
2024-03-04T11:42:39.711Z,23.27
2024-03-04T11:45:13.630Z,26.40
2024-03-04T11:47:42.508Z,25.98
2024-03-04T11:50:29.244Z,25.65
2024-03-04T11:52:58.738Z,26.10
2024-03-04T11:55:25.456Z,23.87
2024-03-04T11:57:52.306Z,23.63
2024-03-04T12:00:20.674Z,24.30
2024-03-04T12:03:01.604Z,24.45
2024-03-04T12:05:28.099Z,25.20
2024-03-04T12:07:54.825Z,22.48
2024-03-04T12:10:23.074Z,24.30
2024-03-04T12:12:49.877Z,23.38
2024-03-04T12:15:16.545Z,24.77
2024-03-04T12:17:43.107Z,24.23
2024-03-04T12:20:09.978Z,24.42
2024-03-04T12:22:38.796Z,21.75
2024-03-04T12:25:07.882Z,23.70
2024-03-04T12:27:35.898Z,24.35
2024-03-04T12:30:09.386Z,24.30
2024-03-04T12:32:36.661Z,23.55
2024-03-04T12:35:03.621Z,22.30
2024-03-04T12:37:33.722Z,22.38
2024-03-04T12:40:05.375Z,24.88
2024-03-04T12:42:31.981Z,22.80
2024-03-04T12:45:03.055Z,22.98
2024-03-04T12:47:29.562Z,22.58
2024-03-04T12:49:56.258Z,22.05
2024-03-04T12:52:23.043Z,23.15
2024-03-04T12:54:49.592Z,22.10
2024-03-04T12:57:16.062Z,22.67
2024-03-04T12:59:45.845Z,21.60
2024-03-04T13:02:12.380Z,22.45
2024-03-04T13:04:40.027Z,20.63
2024-03-04T13:07:06.577Z,21.98
2024-03-04T13:09:33.096Z,20.45
2024-03-04T13:11:59.597Z,20.90
2024-03-04T13:14:26.155Z,20.27
2024-03-04T13:16:52.794Z,20.98
2024-03-04T13:19:19.447Z,20.58
2024-03-04T13:21:45.944Z,22.08
2024-03-04T13:24:12.477Z,20.77
2024-03-04T13:26:41.347Z,20.13
2024-03-04T13:29:11.586Z,18.35
2024-03-04T13:31:38.199Z,21.00
2024-03-04T13:34:05.266Z,18.83
2024-03-04T13:36:31.826Z,19.13
2024-03-04T13:38:58.378Z,19.15
2024-03-04T13:41:24.834Z,18.20
2024-03-04T13:43:51.372Z,18.90
2024-03-04T13:46:18.372Z,18.38
2024-03-04T13:48:44.894Z,18.33
2024-03-04T13:51:11.405Z,18.35
2024-03-04T13:53:38.177Z,17.17
2024-03-04T13:56:05.224Z,17.73
2024-03-04T13:58:31.932Z,16.83
2024-03-04T14:00:58.525Z,16.23
2024-03-04T14:03:25.040Z,14.27
2024-03-04T14:05:51.538Z,16.17
2024-03-04T14:08:18.023Z,15.32
2024-03-04T14:10:45.429Z,14.50
2024-03-04T14:13:14.919Z,15.15
2024-03-04T14:15:41.962Z,15.23
2024-03-04T14:18:08.600Z,15.88
2024-03-04T14:20:35.152Z,15.52
2024-03-04T14:23:02.608Z,15.40
2024-03-04T14:25:29.096Z,15.95
2024-03-04T14:27:55.644Z,16.88
2024-03-04T14:30:23.113Z,15.15
2024-03-04T14:32:49.725Z,16.58
2024-03-04T14:35:16.409Z,14.50
2024-03-04T14:37:43.135Z,15.10
2024-03-04T14:40:10.239Z,14.68
2024-03-04T14:42:37.655Z,14.02
2024-03-04T14:45:04.383Z,15.25
2024-03-04T14:47:33.079Z,17.10
2024-03-04T14:50:02.017Z,15.68
2024-03-04T14:52:28.575Z,13.70
2024-03-04T14:54:55.248Z,13.18
2024-03-04T14:57:22.033Z,12.82
2024-03-04T14:59:48.691Z,12.52
2024-03-04T15:02:15.291Z,13.57
2024-03-04T15:04:41.784Z,12.68
2024-03-04T15:07:08.351Z,14.02
2024-03-04T15:09:36.394Z,13.02
2024-03-04T15:12:07.106Z,13.18
2024-03-04T15:14:35.357Z,14.10
2024-03-04T15:17:06.234Z,13.57
2024-03-04T15:19:37.952Z,12.60
2024-03-04T15:22:05.145Z,14.38
2024-03-04T15:24:31.990Z,13.23
2024-03-04T15:26:58.505Z,13.98
2024-03-04T15:29:25.046Z,14.07
2024-03-04T15:31:51.548Z,13.90
2024-03-04T15:34:18.120Z,14.38
2024-03-04T15:36:50.194Z,13.73
2024-03-04T15:39:20.226Z,14.13
2024-03-04T15:41:46.943Z,14.75
2024-03-04T15:44:14.685Z,13.98
2024-03-04T15:46:44.946Z,13.88
2024-03-04T15:49:13.635Z,14.80
2024-03-04T15:51:46.148Z,13.35
2024-03-04T15:54:13.199Z,14.43
2024-03-04T15:56:39.720Z,14.40
2024-03-04T15:59:06.195Z,14.65
2024-03-04T16:01:32.734Z,14.50
2024-03-04T16:03:59.231Z,14.70
2024-03-04T16:06:32.998Z,14.65
2024-03-04T16:08:59.610Z,16.00
2024-03-04T16:11:26.568Z,13.52
2024-03-04T16:13:53.576Z,14.20
2024-03-04T16:16:20.176Z,14.15
2024-03-04T16:18:47.279Z,15.85
2024-03-04T16:21:14.996Z,14.38
2024-03-04T16:23:42.202Z,14.85
2024-03-04T16:26:11.922Z,14.07
2024-03-04T16:28:41.809Z,14.15
2024-03-04T16:31:10.521Z,14.80
2024-03-04T16:33:38.379Z,13.27
2024-03-04T16:36:05.912Z,12.68
2024-03-04T16:38:33.334Z,11.60
2024-03-04T16:41:00.145Z,13.52
2024-03-04T16:43:26.771Z,12.73
2024-03-04T16:45:53.435Z,13.73
2024-03-04T16:48:19.950Z,12.95
2024-03-04T16:50:46.552Z,12.30
2024-03-04T16:53:14.749Z,12.65
2024-03-04T16:55:41.923Z,11.27
2024-03-04T16:58:09.486Z,12.45
2024-03-04T17:00:36.018Z,11.90
2024-03-04T17:03:05.500Z,12.18
2024-03-04T17:05:33.015Z,11.50
2024-03-04T17:07:59.571Z,10.68
2024-03-04T17:10:26.176Z,11.52
2024-03-04T17:12:53.709Z,10.15
2024-03-04T17:15:22.604Z,11.63
2024-03-04T17:17:49.310Z,11.05
2024-03-04T17:20:15.969Z,10.23
2024-03-04T17:22:43.538Z,11.90
2024-03-04T17:25:10.195Z,9.38
2024-03-04T17:27:36.713Z,9.80
2024-03-04T17:30:04.193Z,9.18
2024-03-04T17:32:30.840Z,10.05
2024-03-04T17:34:58.592Z,8.85
2024-03-04T17:37:25.139Z,10.18
2024-03-04T17:39:51.702Z,9.25
2024-03-04T17:42:18.146Z,9.05
2024-03-04T17:44:44.621Z,9.73
2024-03-04T17:47:11.140Z,9.73
2024-03-04T17:49:37.669Z,9.75
2024-03-04T17:52:04.524Z,11.48
2024-03-04T17:54:31.299Z,11.07
2024-03-04T17:56:57.812Z,9.07
2024-03-04T17:59:24.356Z,9.57
2024-03-04T18:01:53.122Z,10.18
2024-03-04T18:04:19.852Z,10.32
2024-03-04T18:06:46.483Z,9.35
2024-03-04T18:09:12.951Z,10.52
2024-03-04T18:11:39.490Z,9.18
2024-03-04T18:14:06.046Z,7.45
2024-03-04T18:16:35.478Z,8.98
2024-03-04T18:19:02.030Z,8.65
2024-03-04T18:21:28.916Z,8.55
2024-03-04T18:23:55.465Z,9.15
2024-03-04T18:26:22.292Z,9.35
2024-03-04T18:28:48.854Z,9.40
2024-03-04T18:31:24.466Z,9.60
2024-03-04T18:33:51.345Z,10.52
2024-03-04T18:36:19.258Z,9.23
2024-03-04T18:38:45.762Z,8.60
2024-03-04T18:41:12.481Z,9.00
2024-03-04T18:43:39.220Z,9.38
2024-03-04T18:46:08.513Z,9.50
2024-03-04T18:48:34.999Z,9.15
2024-03-04T18:51:04.613Z,8.48
2024-03-04T18:53:31.063Z,8.98
2024-03-04T18:55:57.544Z,9.55
2024-03-04T18:58:24.142Z,9.23
2024-03-04T19:00:51.361Z,9.13
2024-03-04T19:03:17.986Z,9.50
2024-03-04T19:05:44.474Z,8.45
2024-03-04T19:08:10.968Z,9.43
2024-03-04T19:10:37.475Z,9.25
2024-03-04T19:13:04.283Z,9.13
2024-03-04T19:15:31.504Z,9.00
2024-03-04T19:17:58.117Z,9.55
2024-03-04T19:20:24.859Z,9.45
2024-03-04T19:22:51.469Z,9.00
2024-03-04T19:25:18.252Z,9.45
2024-03-04T19:27:44.761Z,9.60
2024-03-04T19:30:11.850Z,9.25
2024-03-04T19:32:39.698Z,9.88
2024-03-04T19:35:07.417Z,7.90
2024-03-04T19:37:33.957Z,9.60
2024-03-04T19:40:00.451Z,7.32
2024-03-04T19:42:27.069Z,8.70
2024-03-04T19:44:53.509Z,8.85
2024-03-04T19:47:20.090Z,8.57
2024-03-04T19:49:47.583Z,8.88
2024-03-04T19:52:14.316Z,8.65
2024-03-04T19:54:41.315Z,8.85
2024-03-04T19:57:08.554Z,8.63
2024-03-04T19:59:35.196Z,9.65
2024-03-04T20:02:01.713Z,9.40
2024-03-04T20:04:31.826Z,8.88
2024-03-04T20:06:59.363Z,9.48
2024-03-04T20:09:26.684Z,8.43
2024-03-04T20:11:53.575Z,8.43
2024-03-04T20:14:20.119Z,8.77
2024-03-04T20:16:47.211Z,8.85
2024-03-04T20:19:13.802Z,9.48
2024-03-04T20:21:40.336Z,9.02
2024-03-04T20:24:06.878Z,8.65
2024-03-04T20:26:33.472Z,9.77
2024-03-04T20:29:00.187Z,9.00
2024-03-04T20:31:26.764Z,8.23
2024-03-04T20:33:53.413Z,9.27
2024-03-04T20:36:19.978Z,9.35
2024-03-04T20:38:46.615Z,8.55
2024-03-04T20:41:13.801Z,9.15
2024-03-04T20:43:40.666Z,7.43
2024-03-04T20:46:09.146Z,9.20
2024-03-04T20:48:37.032Z,8.90
2024-03-04T20:51:05.533Z,10.27
2024-03-04T20:53:32.224Z,8.70
2024-03-04T20:55:58.878Z,8.85
2024-03-04T20:58:25.445Z,9.05
2024-03-04T21:00:51.970Z,10.18
2024-03-04T21:03:18.554Z,8.65
2024-03-04T21:05:45.037Z,9.82
2024-03-04T21:08:11.554Z,8.50
2024-03-04T21:10:38.465Z,8.70
2024-03-04T21:13:05.305Z,10.45
2024-03-04T21:15:32.213Z,10.32
2024-03-04T21:17:59.321Z,9.30
2024-03-04T21:20:27.692Z,9.63
2024-03-04T21:22:55.514Z,10.80
2024-03-04T21:25:22.506Z,10.38
2024-03-04T21:27:52.117Z,9.73
2024-03-04T21:30:19.738Z,10.75
2024-03-04T21:32:46.344Z,9.73
2024-03-04T21:35:13.863Z,10.43
2024-03-04T21:37:40.635Z,9.82
2024-03-04T21:40:12.035Z,9.70
2024-03-04T21:42:40.000Z,10.75
2024-03-04T21:45:10.053Z,11.13
2024-03-04T21:47:37.016Z,10.57
2024-03-04T21:50:05.473Z,10.25
2024-03-04T21:52:33.117Z,9.68
2024-03-04T21:54:59.752Z,10.30
2024-03-04T21:57:27.311Z,10.20
2024-03-04T21:59:53.914Z,11.30
2024-03-04T22:02:20.544Z,10.82
2024-03-04T22:04:47.197Z,11.00
2024-03-04T22:07:13.880Z,10.45
2024-03-04T22:09:40.352Z,12.50
2024-03-04T22:12:10.383Z,11.07
2024-03-04T22:14:36.922Z,11.23
2024-03-04T22:17:06.512Z,11.05
2024-03-04T22:19:33.738Z,11.37
2024-03-04T22:22:00.258Z,11.05
2024-03-04T22:24:27.148Z,11.35
2024-03-04T22:26:53.633Z,10.38
2024-03-04T22:29:20.150Z,10.02
2024-03-04T22:31:46.629Z,9.30
2024-03-04T22:34:13.676Z,10.98
2024-03-04T22:36:44.213Z,10.13
2024-03-04T22:41:47.538Z,9.55
2024-03-04T22:44:14.654Z,10.73
2024-03-04T22:46:41.346Z,9.35
2024-03-04T22:49:08.103Z,10.70
2024-03-04T22:51:34.669Z,10.30
2024-03-04T22:54:01.203Z,11.55
2024-03-04T22:56:29.470Z,11.15
2024-03-04T22:58:56.126Z,10.52
2024-03-04T23:01:28.758Z,9.68
2024-03-04T23:03:55.419Z,10.88
2024-03-04T23:06:23.792Z,10.18
2024-03-04T23:08:51.402Z,9.32
2024-03-04T23:11:18.586Z,9.82
2024-03-04T23:13:45.837Z,8.40
2024-03-04T23:16:13.382Z,9.10
2024-03-04T23:18:40.653Z,8.82
2024-03-04T23:21:09.107Z,9.25
2024-03-04T23:23:36.008Z,8.95
2024-03-04T23:26:04.094Z,7.65
2024-03-04T23:28:30.797Z,7.75
2024-03-04T23:30:58.307Z,8.48
2024-03-04T23:33:25.059Z,8.05
2024-03-04T23:35:51.629Z,7.65
2024-03-04T23:38:21.996Z,8.25
2024-03-04T23:40:49.962Z,8.38
2024-03-04T23:43:16.587Z,8.45
2024-03-04T23:45:43.118Z,8.15
2024-03-04T23:48:11.815Z,8.25
2024-03-04T23:50:38.939Z,9.18
2024-03-04T23:53:05.665Z,8.15
2024-03-04T23:55:32.665Z,8.57
2024-03-04T23:57:59.254Z,8.32
